Time;durP1;ratioP1;P1;durP2;ratioP2;P2;SDS_P1;SDS_P2;PMS_P1;PMS_P2;Temp;Humidity;BMP_temperature;BMP_pressure;BME280_temperature;BME280_humidity;BME280_pressure;Samples;Min_cycle;Max_cycle;Signal;HPM_P1;HPM_P2
2021/04/26 00:00:11;;;;;;;9.00;3.97;;;;;;;5.59;70.85;96477.22;5059355;28;20205;-66
2021/04/26 00:02:37;;;;;;;9.40;4.33;;;;;;;5.55;72.13;96475.84;5057368;28;20196;-67
2021/04/26 00:05:04;;;;;;;9.90;4.30;;;;;;;5.68;71.76;96471.94;5058206;28;20213;-67
2021/04/26 00:07:30;;;;;;;11.63;5.07;;;;;;;5.59;72.70;96471.97;5058027;28;20732;-67
2021/04/26 00:09:56;;;;;;;14.13;4.70;;;;;;;5.49;73.38;96464.16;5058613;28;20240;-68
2021/04/26 00:12:22;;;;;;;8.47;4.43;;;;;;;5.52;74.06;96463.03;5058918;28;20713;-67
2021/04/26 00:14:49;;;;;;;8.33;4.60;;;;;;;5.48;74.18;96454.66;5058695;28;20242;-67
2021/04/26 00:17:15;;;;;;;8.93;4.50;;;;;;;5.44;73.92;96457.69;5056076;28;20217;-67
2021/04/26 00:19:42;;;;;;;12.43;4.57;;;;;;;5.42;74.57;96458.81;5059069;28;20213;-66
2021/04/26 00:22:08;;;;;;;11.77;4.93;;;;;;;5.48;74.26;96457.25;5057959;28;20582;-67
2021/04/26 00:24:34;;;;;;;12.83;4.93;;;;;;;5.46;74.41;96450.56;5058807;28;20222;-66
2021/04/26 00:27:00;;;;;;;12.47;5.13;;;;;;;5.47;74.68;96447.81;5058227;28;20204;-67
2021/04/26 00:29:26;;;;;;;14.63;5.53;;;;;;;5.33;75.12;96439.56;5058227;28;20201;-68
2021/04/26 00:31:52;;;;;;;11.40;5.20;;;;;;;5.25;76.45;96431.59;5058096;28;20216;-67
2021/04/26 00:34:19;;;;;;;9.63;4.80;;;;;;;5.35;75.62;96432.41;5058423;28;20590;-67
2021/04/26 00:36:45;;;;;;;12.13;4.87;;;;;;;5.08;77.08;96421.88;5057612;28;20208;-67
2021/04/26 00:39:11;;;;;;;11.63;5.60;;;;;;;5.22;76.73;96421.44;5057644;28;20770;-67
2021/04/26 00:41:37;;;;;;;10.80;5.17;;;;;;;5.14;77.40;96426.56;5057792;28;20259;-67
2021/04/26 00:44:03;;;;;;;12.53;5.10;;;;;;;5.15;77.65;96416.91;5057933;28;20289;-68
2021/04/26 00:46:29;;;;;;;9.03;5.13;;;;;;;4.86;78.60;96424.78;5056728;28;21154;-66
2021/04/26 00:48:56;;;;;;;11.70;5.13;;;;;;;4.98;78.49;96415.03;5057661;28;20235;-67
2021/04/26 00:51:22;;;;;;;14.20;5.77;;;;;;;5.04;78.40;96412.69;5057184;28;20207;-68
2021/04/26 00:53:48;;;;;;;9.03;5.23;;;;;;;4.84;78.69;96411.03;5057137;28;20200;-67
2021/04/26 00:56:14;;;;;;;16.47;5.97;;;;;;;4.87;79.18;96400.34;5057221;28;20615;-67
2021/04/26 00:58:40;;;;;;;11.50;5.00;;;;;;;4.80;78.95;96394.97;5057497;28;20266;-67
2021/04/26 01:01:06;;;;;;;13.23;5.67;;;;;;;4.95;77.93;96392.63;5057157;28;20209;-67
2021/04/26 01:03:32;;;;;;;10.93;5.50;;;;;;;4.91;78.52;96388.66;5057100;28;20224;-66
2021/04/26 01:05:59;;;;;;;9.70;5.43;;;;;;;4.75;78.96;96378.88;5057096;28;20349;-68
2021/04/26 01:08:25;;;;;;;12.70;5.63;;;;;;;4.79;78.77;96375.88;5057397;28;20228;-67
2021/04/26 01:10:52;;;;;;;7.83;5.17;;;;;;;4.82;78.16;96370.38;5057405;28;20269;-67
2021/04/26 01:13:28;;;;;;;12.10;5.50;;;;;;;4.79;78.57;96360.22;5056922;28;20204;-67
2021/04/26 01:16:03;;;;;;;15.47;5.47;;;;;;;4.72;79.06;96353.06;5054742;28;20211;-67
2021/04/26 01:18:34;;;;;;;13.03;5.80;;;;;;;4.78;78.92;96355.94;5056855;28;20220;-67
2021/04/26 01:21:39;;;;;;;10.10;5.40;;;;;;;4.50;80.88;96355.97;5057689;28;20212;-67
2021/04/26 01:24:43;;;;;;;10.37;5.73;;;;;;;4.61;80.09;96359.25;5056599;28;20235;-67
2021/04/26 01:27:16;;;;;;;10.90;5.57;;;;;;;4.62;80.33;96358.31;5057002;28;20211;-66
2021/04/26 01:30:08;;;;;;;11.67;6.07;;;;;;;4.59;80.50;96353.34;5057228;28;20208;-67
2021/04/26 01:32:41;;;;;;;11.30;5.80;;;;;;;4.62;80.60;96352.25;5052158;28;20200;-66
2021/04/26 01:35:09;;;;;;;12.10;5.37;;;;;;;4.65;79.90;96352.81;5056812;28;20208;-67
2021/04/26 01:37:36;;;;;;;11.67;5.90;;;;;;;4.71;79.60;96361.84;5057443;28;20231;-67
2021/04/26 01:40:06;;;;;;;11.00;5.93;;;;;;;4.62;80.03;96362.69;5056541;28;20988;-67
2021/04/26 01:42:33;;;;;;;13.07;5.70;;;;;;;4.69;79.44;96361.19;5056865;28;20192;-68
2021/04/26 01:45:00;;;;;;;11.77;5.37;;;;;;;4.65;79.13;96357.22;5057175;28;20784;-67
2021/04/26 01:47:27;;;;;;;13.40;6.53;;;;;;;4.65;78.89;96358.03;5057311;28;20225;-67
2021/04/26 01:49:57;;;;;;;11.47;6.27;;;;;;;4.62;78.58;96368.75;5056416;28;20208;-67
2021/04/26 01:52:23;;;;;;;11.60;6.00;;;;;;;4.69;79.00;96369.00;5057365;28;20200;-68
2021/04/26 01:54:50;;;;;;;11.93;5.33;;;;;;;4.49;79.16;96362.97;5056789;28;20201;-68
2021/04/26 01:57:17;;;;;;;12.33;5.83;;;;;;;4.58;78.96;96356.09;5056365;28;20297;-67
2021/04/26 01:59:43;;;;;;;9.63;5.40;;;;;;;4.64;78.11;96355.56;5056564;28;20204;-67
2021/04/26 02:02:09;;;;;;;11.33;5.50;;;;;;;4.59;78.15;96355.13;5057137;28;20681;-67
2021/04/26 02:04:37;;;;;;;12.97;6.57;;;;;;;4.61;78.23;96354.03;5056410;28;20224;-67
2021/04/26 02:07:05;;;;;;;11.83;5.77;;;;;;;4.58;78.48;96356.94;5056169;28;20209;-67
2021/04/26 02:09:35;;;;;;;10.43;5.97;;;;;;;4.51;78.43;96355.00;5056785;28;20200;-67
2021/04/26 02:12:01;;;;;;;12.07;6.10;;;;;;;4.54;77.95;96365.16;5056655;28;20207;-67
2021/04/26 02:14:28;;;;;;;9.77;5.37;;;;;;;4.55;77.23;96356.38;5056283;28;20207;-67
2021/04/26 02:16:54;;;;;;;14.43;6.50;;;;;;;4.52;77.76;96361.84;5053894;28;20208;-67
2021/04/26 02:19:20;;;;;;;13.67;5.53;;;;;;;4.58;77.62;96363.94;5056471;28;20718;-67
2021/04/26 02:21:46;;;;;;;15.73;5.33;;;;;;;4.47;77.25;96364.09;5056473;28;20366;-67
2021/04/26 02:24:13;;;;;;;9.87;4.97;;;;;;;4.37;77.50;96364.06;5056867;28;20251;-67
2021/04/26 02:26:39;;;;;;;12.93;5.77;;;;;;;4.48;77.40;96363.09;5060061;28;20204;-67
2021/04/26 02:29:06;;;;;;;9.80;5.80;;;;;;;4.50;77.30;96364.59;5060558;28;20256;-67
2021/04/26 02:31:34;;;;;;;9.00;5.40;;;;;;;4.52;76.99;96364.47;5060407;28;20200;-67
2021/04/26 02:34:08;;;;;;;15.20;6.00;;;;;;;4.43;77.25;96363.53;5061060;28;20208;-67
2021/04/26 02:36:36;;;;;;;12.13;5.93;;;;;;;4.30;77.98;96362.97;5059051;28;20728;-67
2021/04/26 02:39:06;;;;;;;9.37;5.30;;;;;;;4.29;77.83;96357.91;5060612;28;20651;-67
2021/04/26 02:41:36;;;;;;;11.13;5.37;;;;;;;4.22;77.71;96348.13;5060855;28;20200;-67
2021/04/26 02:44:06;;;;;;;13.00;6.27;;;;;;;4.22;78.00;96338.53;5060386;28;20475;-67
2021/04/26 02:46:34;;;;;;;9.83;5.33;;;;;;;4.15;77.85;96336.59;5059832;28;20244;-67
2021/04/26 02:49:02;;;;;;;16.10;5.63;;;;;;;4.06;78.57;96348.66;5057740;28;20228;-67
2021/04/26 02:51:30;;;;;;;14.33;5.77;;;;;;;4.06;78.28;96340.84;5060320;28;20211;-67
2021/04/26 02:53:58;;;;;;;12.83;6.07;;;;;;;4.00;78.56;96337.97;5059861;28;20214;-67
2021/04/26 02:56:25;;;;;;;11.57;5.40;;;;;;;3.98;78.47;96338.06;5059444;28;20212;-67
2021/04/26 02:58:55;;;;;;;10.53;5.63;;;;;;;3.93;78.31;96327.22;5060721;28;20224;-67
2021/04/26 03:01:22;;;;;;;14.77;5.77;;;;;;;3.73;79.66;96328.16;5059923;28;20204;-67
2021/04/26 03:03:48;;;;;;;15.23;5.90;;;;;;;3.37;81.34;96319.25;5059832;28;20239;-67
2021/04/26 03:06:15;;;;;;;14.63;6.30;;;;;;;3.43;82.04;96323.97;5058832;28;20207;-67
2021/04/26 03:08:42;;;;;;;17.27;6.37;;;;;;;3.38;81.70;96319.13;5059852;28;20286;-67
2021/04/26 03:11:11;;;;;;;10.60;5.67;;;;;;;3.54;81.31;96303.00;5056938;28;20216;-67
2021/04/26 03:13:38;;;;;;;11.53;5.50;;;;;;;3.51;81.25;96308.47;5059469;28;20748;-67
2021/04/26 03:16:06;;;;;;;11.33;5.60;;;;;;;3.25;81.75;96307.31;5056306;28;20776;-68
2021/04/26 03:18:33;;;;;;;12.33;5.83;;;;;;;3.14;82.88;96315.19;5059709;28;20231;-67
2021/04/26 03:21:01;;;;;;;11.33;6.10;;;;;;;3.12;82.88;96311.91;5059804;28;20968;-67
2021/04/26 03:23:28;;;;;;;13.90;6.00;;;;;;;3.07;83.04;96312.28;5059628;28;20236;-67
2021/04/26 03:25:57;;;;;;;14.67;5.50;;;;;;;3.00;83.80;96304.31;5058717;28;20200;-67
2021/04/26 03:28:24;;;;;;;11.63;5.70;;;;;;;3.03;83.36;96310.91;5059104;28;20212;-67
2021/04/26 03:30:50;;;;;;;10.50;5.90;;;;;;;3.14;83.49;96315.19;5059820;28;21185;-67
2021/04/26 03:33:17;;;;;;;10.63;5.47;;;;;;;3.12;83.38;96311.91;5058993;28;20283;-67
2021/04/26 03:35:44;;;;;;;11.10;6.30;;;;;;;3.14;82.54;96313.44;5058500;28;20220;-66
2021/04/26 03:38:11;;;;;;;17.57;6.23;;;;;;;3.14;83.59;96304.78;5058861;28;20717;-67
2021/04/26 03:40:39;;;;;;;9.13;5.53;;;;;;;3.02;83.56;96300.63;5059574;28;20223;-67
2021/04/26 03:43:05;;;;;;;12.63;5.30;;;;;;;2.83;84.31;96297.94;5059240;28;20828;-67
2021/04/26 03:45:31;;;;;;;13.10;5.60;;;;;;;3.04;83.63;96293.50;5058978;28;20196;-67
2021/04/26 03:47:58;;;;;;;10.63;6.27;;;;;;;3.01;83.94;96291.16;5058714;28;20236;-68
2021/04/26 03:50:26;;;;;;;10.27;5.63;;;;;;;3.21;82.47;96291.13;5059598;28;20204;-67
2021/04/26 03:52:52;;;;;;;11.17;5.87;;;;;;;3.32;81.22;96278.00;5059481;28;20208;-66
2021/04/26 03:55:21;;;;;;;14.63;5.53;;;;;;;3.42;81.24;96272.81;5058070;28;20197;-67
2021/04/26 03:57:48;;;;;;;12.53;5.90;;;;;;;3.37;81.62;96282.81;5058405;28;21367;-68
2021/04/26 04:00:17;;;;;;;11.90;5.57;;;;;;;3.27;82.13;96287.16;5059028;28;20211;-67
2021/04/26 04:02:43;;;;;;;14.30;5.93;;;;;;;3.29;82.13;96287.84;5058703;28;20914;-67
2021/04/26 04:05:11;;;;;;;14.00;6.13;;;;;;;3.17;83.14;96276.72;5058730;28;20518;-67
2021/04/26 04:07:37;;;;;;;13.93;5.73;;;;;;;3.14;82.86;96277.00;5058444;28;20231;-67
2021/04/26 04:10:04;;;;;;;11.93;5.97;;;;;;;3.29;82.40;96273.03;5058304;28;20219;-66
2021/04/26 04:12:30;;;;;;;14.37;5.70;;;;;;;3.18;83.45;96277.53;5058717;28;20230;-66
2021/04/26 04:14:56;;;;;;;10.33;5.93;;;;;;;3.09;83.34;96281.75;5058496;28;20209;-67
2021/04/26 04:17:22;;;;;;;12.73;5.70;;;;;;;2.99;83.42;96279.22;5057806;28;20224;-67
2021/04/26 04:19:48;;;;;;;9.63;5.70;;;;;;;3.15;84.22;96285.63;5058093;28;20212;-66
2021/04/26 04:22:14;;;;;;;13.63;6.10;;;;;;;2.95;83.58;96276.06;5058822;28;20647;-67
2021/04/26 04:24:41;;;;;;;13.20;6.27;;;;;;;3.00;83.90;96273.09;5057946;28;20656;-67
2021/04/26 04:27:07;;;;;;;12.23;5.97;;;;;;;3.08;82.47;96268.84;5057049;28;20259;-67
2021/04/26 04:29:33;;;;;;;14.27;6.40;;;;;;;3.15;83.96;96270.00;5057872;28;20610;-67
2021/04/26 04:31:59;;;;;;;11.23;5.93;;;;;;;3.23;83.31;96267.53;5058491;28;20207;-68
2021/04/26 04:34:25;;;;;;;10.93;6.17;;;;;;;3.18;83.21;96259.31;5058384;28;20195;-66
2021/04/26 04:36:52;;;;;;;11.77;5.87;;;;;;;3.14;83.22;96268.34;5057687;28;20203;-67
2021/04/26 04:39:18;;;;;;;11.83;6.30;;;;;;;3.08;84.24;96261.88;5058233;28;20228;-67
2021/04/26 04:41:45;;;;;;;19.23;6.50;;;;;;;3.17;83.30;96262.84;5057908;28;20299;-67
2021/04/26 04:44:11;;;;;;;13.47;6.27;;;;;;;3.18;83.42;96260.16;5058240;28;20220;-67
2021/04/26 04:46:37;;;;;;;15.27;6.40;;;;;;;3.23;83.72;96249.31;5057192;28;20208;-66
2021/04/26 04:49:03;;;;;;;16.30;6.80;;;;;;;3.31;83.71;96254.69;5057216;28;20314;-67
2021/04/26 04:51:29;;;;;;;10.63;5.87;;;;;;;3.46;82.61;96261.97;5057749;28;20196;-67
2021/04/26 04:53:55;;;;;;;16.80;6.33;;;;;;;3.46;83.20;96253.34;5057693;28;20204;-66
2021/04/26 04:56:22;;;;;;;11.97;6.53;;;;;;;3.62;82.25;96268.31;5056905;28;20200;-67
2021/04/26 04:58:48;;;;;;;17.57;6.77;;;;;;;3.76;81.30;96262.72;5057855;28;20228;-67
2021/04/26 05:01:14;;;;;;;10.77;6.50;;;;;;;3.93;81.88;96269.06;5057369;28;20254;-67
2021/04/26 05:03:41;;;;;;;17.43;6.50;;;;;;;3.84;81.28;96270.69;5057725;28;20228;-67
2021/04/26 05:06:07;;;;;;;14.50;7.00;;;;;;;3.99;80.77;96274.56;5056376;28;20216;-67
2021/04/26 05:08:33;;;;;;;12.93;5.93;;;;;;;3.99;80.71;96274.56;5057608;28;20267;-68
2021/04/26 05:10:59;;;;;;;12.03;6.17;;;;;;;4.16;79.66;96273.84;5057245;28;20212;-66
2021/04/26 05:13:25;;;;;;;10.33;5.93;;;;;;;4.24;79.73;96277.44;5056471;28;20201;-66
2021/04/26 05:15:52;;;;;;;11.63;5.80;;;;;;;4.26;78.99;96272.09;5055981;28;20748;-67
2021/04/26 05:18:18;;;;;;;16.43;6.40;;;;;;;4.10;79.46;96281.41;5057245;28;20220;-66
2021/04/26 05:20:44;;;;;;;12.27;6.70;;;;;;;4.23;80.19;96278.41;5056074;28;20666;-67
2021/04/26 05:23:10;;;;;;;10.83;6.07;;;;;;;4.36;79.33;96278.13;5056561;28;20200;-66
2021/04/26 05:25:37;;;;;;;13.80;6.90;;;;;;;4.41;79.90;96283.75;5056029;28;20207;-67
2021/04/26 05:28:03;;;;;;;9.00;5.83;;;;;;;4.40;79.69;96282.09;5056171;28;20235;-67
2021/04/26 05:30:30;;;;;;;15.93;6.37;;;;;;;4.41;79.23;96281.13;5056374;28;20205;-66
2021/04/26 05:32:58;;;;;;;14.50;6.43;;;;;;;4.40;79.13;96284.69;5056230;28;20232;-66
2021/04/26 05:35:24;;;;;;;13.40;6.43;;;;;;;4.36;80.09;96284.16;5055051;28;20258;-67
2021/04/26 05:37:51;;;;;;;14.87;6.80;;;;;;;4.49;78.05;96289.94;5056671;28;20228;-66
2021/04/26 05:40:17;;;;;;;10.50;6.43;;;;;;;4.47;78.49;96285.81;5055490;28;20209;-67
2021/04/26 05:42:43;;;;;;;12.07;6.40;;;;;;;4.52;78.77;96286.19;5055788;28;20211;-67
2021/04/26 05:45:11;;;;;;;13.83;6.80;;;;;;;4.59;78.97;96293.31;5056831;28;20228;-66
2021/04/26 05:47:37;;;;;;;17.63;6.33;;;;;;;4.79;77.78;96288.91;5054496;28;20216;-67
2021/04/26 05:50:05;;;;;;;12.03;6.70;;;;;;;4.77;78.38;96289.03;5056799;28;20212;-67
2021/04/26 05:52:31;;;;;;;11.03;6.17;;;;;;;4.77;77.13;96293.44;5056458;28;20204;-66
2021/04/26 05:54:57;;;;;;;18.73;6.77;;;;;;;4.82;78.09;96287.66;5056082;28;20208;-66
2021/04/26 05:57:23;;;;;;;12.67;6.27;;;;;;;4.85;77.22;96295.22;5055558;28;20274;-66
2021/04/26 05:59:49;;;;;;;11.80;6.60;;;;;;;5.02;78.99;96299.69;5054653;28;20209;-66
2021/04/26 06:02:15;;;;;;;14.80;6.60;;;;;;;5.11;77.06;96293.63;5055602;28;20201;-67
2021/04/26 06:04:41;;;;;;;11.53;6.23;;;;;;;5.15;74.79;96299.38;5055946;28;20790;-67
2021/04/26 06:07:07;;;;;;;12.73;6.43;;;;;;;5.18;78.26;96294.72;5054209;28;20234;-67
2021/04/26 06:09:33;;;;;;;13.03;6.77;;;;;;;5.24;75.29;96290.69;5036437;28;532155;-66
2021/04/26 06:11:59;;;;;;;14.20;6.70;;;;;;;5.14;76.34;96293.34;5055764;28;20204;-66
2021/04/26 06:14:25;;;;;;;10.53;6.60;;;;;;;5.25;76.71;96292.34;5056802;28;20196;-66
2021/04/26 06:16:51;;;;;;;15.67;6.80;;;;;;;5.32;75.20;96296.84;5054403;28;20217;-66
2021/04/26 06:19:17;;;;;;;9.90;6.37;;;;;;;5.31;74.02;96294.34;5056062;28;20290;-66
2021/04/26 06:21:43;;;;;;;15.33;6.67;;;;;;;5.30;76.19;96296.16;5056101;28;20204;-66
2021/04/26 06:24:10;;;;;;;13.90;6.70;;;;;;;5.34;75.13;96296.72;5056461;28;20251;-66
2021/04/26 06:26:36;;;;;;;13.07;6.47;;;;;;;5.50;76.14;96293.31;5055867;28;20204;-66
2021/04/26 06:29:02;;;;;;;18.17;6.57;;;;;;;5.53;75.64;96294.81;5056743;28;20710;-69
2021/04/26 06:31:28;;;;;;;12.83;6.73;;;;;;;5.76;74.63;96290.88;5056557;28;20216;-66
2021/04/26 06:33:54;;;;;;;9.93;6.37;;;;;;;5.80;76.73;96292.22;5055693;28;20198;-66
2021/04/26 06:36:20;;;;;;;13.83;7.13;;;;;;;5.79;74.50;96293.19;5055647;28;20200;-67
2021/04/26 06:38:46;;;;;;;12.07;6.70;;;;;;;5.82;73.05;96291.13;5056189;28;20217;-66
2021/04/26 06:41:13;;;;;;;12.17;6.73;;;;;;;6.02;75.28;96297.88;5056535;28;20294;-67
2021/04/26 06:43:39;;;;;;;14.90;6.63;;;;;;;6.04;73.41;96295.09;5055817;28;20713;-66
2021/04/26 06:46:04;;;;;;;17.00;7.20;;;;;;;6.01;73.13;96290.16;5055726;28;20257;-66
2021/04/26 06:48:30;;;;;;;14.67;7.13;;;;;;;6.22;76.97;96283.66;5055286;28;20237;-66
2021/04/26 06:50:57;;;;;;;11.97;6.97;;;;;;;6.30;73.29;96283.75;5056918;28;20204;-66
2021/04/26 06:53:23;;;;;;;13.80;6.83;;;;;;;6.30;73.09;96279.34;5055221;28;20209;-66
2021/04/26 06:55:49;;;;;;;14.37;7.30;;;;;;;6.40;70.60;96277.47;5054884;28;20200;-66
2021/04/26 06:58:16;;;;;;;12.53;6.43;;;;;;;6.45;72.39;96285.66;5054892;28;20270;-66
2021/04/26 07:00:42;;;;;;;14.37;6.70;;;;;;;6.43;72.66;96282.41;5056053;28;20996;-66
2021/04/26 07:03:08;;;;;;;12.70;7.10;;;;;;;6.67;74.98;96282.59;5056424;28;20617;-66
2021/04/26 07:05:34;;;;;;;12.00;6.17;;;;;;;6.69;71.35;96278.03;5055432;28;20220;-67
2021/04/26 07:08:00;;;;;;;15.40;7.17;;;;;;;6.79;72.04;96279.56;5056558;28;20230;-66
2021/04/26 07:10:26;;;;;;;13.93;7.60;;;;;;;6.95;72.75;96273.59;5056579;28;20209;-67
2021/04/26 07:12:52;;;;;;;12.07;6.57;;;;;;;7.16;72.61;96274.09;5060219;28;20242;-67
2021/04/26 07:15:18;;;;;;;12.97;7.00;;;;;;;7.36;72.05;96274.50;5058839;28;20201;-67
2021/04/26 07:17:44;;;;;;;14.37;6.73;;;;;;;7.32;71.42;96269.75;5060214;28;20614;-67
2021/04/26 07:20:12;;;;;;;14.37;7.20;;;;;;;7.36;69.04;96284.19;5059145;28;20196;-67
2021/04/26 07:22:39;;;;;;;16.17;7.60;;;;;;;7.42;68.34;96279.13;5058639;28;20605;-67
2021/04/26 07:25:06;;;;;;;14.87;7.00;;;;;;;7.41;67.69;96277.50;5057777;28;20216;-67
2021/04/26 07:27:33;;;;;;;14.70;6.83;;;;;;;7.42;68.78;96278.28;5059459;28;20309;-67
2021/04/26 07:29:59;;;;;;;15.10;6.63;;;;;;;7.61;68.00;96273.66;5059125;28;20216;-66
2021/04/26 07:32:26;;;;;;;18.87;7.10;;;;;;;7.68;68.18;96276.47;5059881;28;20201;-67
2021/04/26 07:34:52;;;;;;;12.87;6.70;;;;;;;7.86;71.12;96268.31;5059110;28;20203;-66
2021/04/26 07:37:18;;;;;;;12.40;6.80;;;;;;;7.98;68.54;96269.66;5058243;28;20211;-66
2021/04/26 07:39:45;;;;;;;14.60;7.23;;;;;;;7.90;69.37;96269.66;5058612;28;20289;-66
2021/04/26 07:42:11;;;;;;;14.10;7.80;;;;;;;8.20;70.47;96274.34;5058988;28;20203;-67
2021/04/26 07:44:38;;;;;;;15.70;6.80;;;;;;;8.40;69.78;96277.47;5058000;28;20224;-66
2021/04/26 07:47:05;;;;;;;14.13;7.57;;;;;;;8.32;66.83;96270.41;5054166;28;20621;-67
2021/04/26 07:49:32;;;;;;;14.40;7.30;;;;;;;8.06;67.45;96271.50;5059545;28;20246;-67
2021/04/26 07:51:58;;;;;;;14.33;6.80;;;;;;;8.38;68.41;96263.69;5058349;28;20212;-67
2021/04/26 07:54:24;;;;;;;13.67;6.77;;;;;;;8.55;68.98;96272.25;5057839;28;20192;-67
2021/04/26 07:56:50;;;;;;;14.13;6.70;;;;;;;8.45;67.46;96270.75;5057036;28;20274;-67
2021/04/26 07:59:18;;;;;;;13.37;6.90;;;;;;;8.45;65.93;96276.00;5057572;28;20227;-67
2021/04/26 08:01:44;;;;;;;24.13;7.67;;;;;;;8.54;66.08;96273.22;5057454;28;20373;-66
2021/04/26 08:04:10;;;;;;;22.00;7.57;;;;;;;8.46;67.66;96271.56;5059441;28;20239;-67
2021/04/26 08:06:38;;;;;;;18.13;7.07;;;;;;;8.62;65.10;96273.22;5057141;28;20204;-67
2021/04/26 08:09:05;;;;;;;19.30;8.10;;;;;;;8.78;66.77;96270.59;5057702;28;20224;-66
2021/04/26 08:11:31;;;;;;;10.10;6.90;;;;;;;8.75;67.94;96263.03;5058578;28;20208;-67
2021/04/26 08:13:56;;;;;;;12.97;7.00;;;;;;;8.90;65.64;96266.63;5058579;28;20199;-67
2021/04/26 08:16:23;;;;;;;15.17;7.17;;;;;;;8.91;63.87;96267.44;5057898;28;20196;-67
2021/04/26 08:18:48;;;;;;;13.50;7.00;;;;;;;8.93;68.34;96263.66;5058569;28;20744;-68
2021/04/26 08:21:14;;;;;;;11.87;6.57;;;;;;;9.08;64.39;96266.47;5059057;28;20212;-67
2021/04/26 08:23:43;;;;;;;20.70;7.30;;;;;;;8.75;66.95;96263.03;5057795;28;20207;-67
2021/04/26 08:26:09;;;;;;;14.50;7.03;;;;;;;9.07;63.92;96265.63;5057781;28;20303;-67
2021/04/26 08:28:35;;;;;;;16.43;7.30;;;;;;;9.17;65.77;96268.91;5059480;28;20278;-67
2021/04/26 08:31:01;;;;;;;14.37;7.23;;;;;;;9.34;67.82;96263.44;5058349;28;20212;-67
2021/04/26 08:33:27;;;;;;;13.23;7.63;;;;;;;9.58;68.94;96254.63;5058208;28;20207;-67
2021/04/26 08:35:54;;;;;;;16.00;7.60;;;;;;;9.46;70.25;96253.38;5058153;28;20213;-66
2021/04/26 08:38:20;;;;;;;13.13;6.80;;;;;;;9.47;63.39;96245.31;5058819;28;20228;-68
2021/04/26 08:40:46;;;;;;;14.63;6.97;;;;;;;9.68;64.93;96244.72;5057787;28;20785;-67
2021/04/26 08:43:12;;;;;;;12.13;6.90;;;;;;;9.79;64.97;96243.34;5057296;28;21061;-67
2021/04/26 08:45:38;;;;;;;13.60;7.70;;;;;;;9.70;65.43;96246.22;5054225;28;20225;-68
2021/04/26 08:48:06;;;;;;;13.80;6.90;;;;;;;9.99;61.88;96241.13;5058516;28;20270;-67
2021/04/26 08:50:33;;;;;;;15.73;7.40;;;;;;;10.10;61.10;96241.56;5057598;28;20612;-67
2021/04/26 08:52:59;;;;;;;11.97;7.37;;;;;;;10.08;64.20;96243.56;5058314;28;20200;-67
2021/04/26 08:55:26;;;;;;;14.90;6.83;;;;;;;10.06;63.22;96242.09;5056666;28;20246;-67
2021/04/26 08:57:54;;;;;;;14.07;7.40;;;;;;;10.31;63.36;96247.03;5057127;28;20221;-68
2021/04/26 09:00:21;;;;;;;11.93;6.80;;;;;;;10.31;61.80;96238.31;5057715;28;20227;-68
2021/04/26 09:02:53;;;;;;;14.23;7.50;;;;;;;10.15;65.72;96236.59;5055608;28;20712;-67
2021/04/26 09:05:24;;;;;;;16.70;7.30;;;;;;;10.28;61.92;96236.84;5057525;28;20292;-67
2021/04/26 09:07:52;;;;;;;15.37;7.63;;;;;;;10.35;63.48;96237.78;5057333;28;20315;-67
2021/04/26 09:10:45;;;;;;;13.63;6.33;;;;;;;10.90;62.86;96225.16;5057755;28;20208;-68
2021/04/26 09:13:33;;;;;;;15.47;7.13;;;;;;;11.14;60.84;96226.53;5057523;28;21300;-67
2021/04/26 09:16:01;;;;;;;18.30;6.87;;;;;;;10.94;61.13;96230.69;5056086;28;20193;-67
2021/04/26 09:18:54;;;;;;;13.63;6.40;;;;;;;11.00;57.98;96229.97;5056717;28;20421;-66
2021/04/26 09:21:24;;;;;;;12.73;7.00;;;;;;;11.02;60.90;96238.53;5029542;28;20228;-67
2021/04/26 09:24:10;;;;;;;13.93;6.73;;;;;;;11.24;59.07;96224.47;5055698;28;20200;-67
2021/04/26 09:26:37;;;;;;;13.13;6.50;;;;;;;11.36;58.76;96220.34;5055016;28;20682;-67
2021/04/26 09:29:28;;;;;;;13.93;7.13;;;;;;;11.34;57.24;96225.00;5054496;28;20224;-68
2021/04/26 09:32:11;;;;;;;12.37;6.60;;;;;;;11.43;58.42;96223.91;5055924;28;20204;-68
2021/04/26 09:34:40;;;;;;;12.67;7.07;;;;;;;11.74;61.58;96216.63;5053602;28;20562;-67
2021/04/26 09:37:10;;;;;;;12.40;5.97;;;;;;;11.61;56.14;96213.84;5054647;28;20207;-67
2021/04/26 09:39:54;;;;;;;10.27;6.30;;;;;;;11.69;59.08;96205.81;5056088;28;21074;-67
2021/04/26 09:42:45;;;;;;;11.03;6.27;;;;;;;12.19;58.68;96204.78;5056769;28;20749;-67
2021/04/26 09:45:24;;;;;;;11.52;6.18;;;;;;;12.36;53.88;96200.88;5055663;28;20228;-68
2021/04/26 09:48:07;;;;;;;17.17;7.10;;;;;;;12.52;55.95;96195.31;5056374;28;20227;-68
2021/04/26 09:50:33;;;;;;;12.27;6.90;;;;;;;12.36;60.28;96203.53;5056808;28;20690;-67
2021/04/26 09:53:07;;;;;;;14.20;6.97;;;;;;;12.50;52.12;96199.16;5056415;28;20713;-67
2021/04/26 09:55:34;;;;;;;16.63;6.28;;;;;;;12.59;56.61;96201.50;5056110;28;20282;-67
2021/04/26 09:58:00;;;;;;;9.70;5.95;;;;;;;12.74;56.48;96189.03;5056657;28;20638;-67
2021/04/26 10:00:27;;;;;;;12.70;6.10;;;;;;;12.57;56.19;96190.28;5056279;28;20742;-66
2021/04/26 10:02:53;;;;;;;12.88;6.60;;;;;;;12.60;52.63;96191.75;5056935;28;20204;-67
2021/04/26 10:05:19;;;;;;;11.07;5.77;;;;;;;12.62;48.96;96190.53;5057027;28;20232;-67
2021/04/26 10:07:46;;;;;;;11.97;5.80;;;;;;;12.19;50.72;96191.56;5056950;28;20250;-67
2021/04/26 10:10:12;;;;;;;11.23;6.03;;;;;;;12.32;52.24;96194.34;5055933;28;20223;-67
2021/04/26 10:12:37;;;;;;;12.63;5.73;;;;;;;12.70;50.59;96192.25;5056876;28;20216;-68
2021/04/26 10:15:04;;;;;;;11.73;5.28;;;;;;;12.78;49.09;96199.03;5057752;28;20212;-67
2021/04/26 10:17:32;;;;;;;12.88;4.90;;;;;;;12.81;48.30;96190.69;5056150;28;20568;-67
2021/04/26 10:19:59;;;;;;;12.77;5.60;;;;;;;12.69;47.28;96193.25;5055737;28;20219;-67
2021/04/26 10:22:33;;;;;;;7.38;4.22;;;;;;;12.86;49.59;96192.81;5056992;28;20728;-68
2021/04/26 10:25:01;;;;;;;12.32;5.43;;;;;;;12.74;47.88;96196.97;5055829;28;20247;-67
2021/04/26 10:27:31;;;;;;;9.90;4.80;;;;;;;12.82;46.74;96187.06;5056228;28;20220;-67
2021/04/26 10:30:01;;;;;;;8.80;4.82;;;;;;;13.00;47.02;96183.97;5055699;28;21128;-67
2021/04/26 10:32:27;;;;;;;10.60;5.63;;;;;;;12.84;48.84;96178.94;5055622;28;20204;-68
2021/04/26 10:35:15;;;;;;;6.68;4.10;;;;;;;12.74;48.05;96182.91;5055902;28;20208;-66
2021/04/26 10:37:41;;;;;;;8.35;5.20;;;;;;;12.78;47.79;96169.13;5049158;28;20220;-67
2021/04/26 10:40:16;;;;;;;9.40;4.88;;;;;;;13.14;47.58;96164.53;5056400;28;20205;-67
2021/04/26 10:42:44;;;;;;;15.10;5.60;;;;;;;13.25;47.71;96161.31;5056604;28;20709;-67
2021/04/26 10:45:26;;;;;;;8.93;5.68;;;;;;;13.74;48.67;96155.66;5054479;28;20336;-68
2021/04/26 10:48:12;;;;;;;9.93;5.32;;;;;;;13.43;48.25;96146.59;5059670;28;20224;-67
2021/04/26 10:50:44;;;;;;;9.60;5.45;;;;;;;13.72;50.11;96155.06;5059634;28;20239;-67
2021/04/26 10:53:11;;;;;;;10.77;5.15;;;;;;;13.72;45.83;96154.22;5059586;28;20204;-67
2021/04/26 10:55:43;;;;;;;9.82;4.95;;;;;;;13.66;44.24;96161.13;5059421;28;20227;-68
2021/04/26 10:58:36;;;;;;;9.90;4.68;;;;;;;13.95;44.25;96150.25;5059316;28;20297;-67
2021/04/26 11:01:03;;;;;;;13.45;5.40;;;;;;;14.05;43.43;96151.50;5059123;28;20674;-68
2021/04/26 11:03:39;;;;;;;10.38;4.70;;;;;;;13.69;42.93;96141.41;5059860;28;20215;-67
2021/04/26 11:06:27;;;;;;;12.32;5.68;;;;;;;13.98;44.12;96133.94;5058805;28;20277;-67
2021/04/26 11:09:07;;;;;;;11.52;5.60;;;;;;;14.25;43.54;96125.06;5059782;28;20224;-67
2021/04/26 11:11:41;;;;;;;21.40;6.20;;;;;;;14.00;42.56;96118.66;5054974;28;21030;-67
2021/04/26 11:14:07;;;;;;;9.65;5.40;;;;;;;13.22;46.15;96122.84;5059322;28;20741;-67
2021/04/26 11:16:39;;;;;;;15.10;5.30;;;;;;;13.80;46.17;96115.16;5057382;28;20211;-67
2021/04/26 11:19:09;;;;;;;12.60;5.68;;;;;;;14.17;50.32;96118.13;5059553;28;20285;-66
2021/04/26 11:22:06;;;;;;;10.32;5.47;;;;;;;14.45;41.40;96116.13;5059814;28;20200;-66
2021/04/26 11:25:03;;;;;;;10.95;5.45;;;;;;;14.62;42.95;96112.03;4957364;28;20234;-68
2021/04/26 11:27:34;;;;;;;12.15;5.53;;;;;;;14.58;44.13;96117.97;5057001;28;20221;-67
2021/04/26 11:30:18;;;;;;;12.05;5.75;;;;;;;14.44;45.54;96113.66;5059863;28;20219;-70
2021/04/26 11:33:00;;;;;;;13.38;6.35;;;;;;;14.66;42.10;96110.59;5059301;28;20675;-67
2021/04/26 11:35:26;;;;;;;11.45;5.30;;;;;;;14.74;47.23;96105.91;5058019;28;20200;-67
2021/04/26 11:37:53;;;;;;;9.98;5.47;;;;;;;14.42;40.82;96097.13;5058083;28;20321;-68